Time;durP1;ratioP1;P1;durP2;ratioP2;P2;SDS_P1;SDS_P2;PMS_P1;PMS_P2;Temp;Humidity;BMP_temperature;BMP_pressure;BME280_temperature;BME280_humidity;BME280_pressure;Samples;Min_cycle;Max_cycle;Signal;HPM_P1;HPM_P2
2022/12/10 00:00:07;;;;;;;3.03;0.63;;;21.40;99.90;;;;;;5087933;28;20207;-93
2022/12/10 00:02:37;;;;;;;4.53;0.75;;;21.40;99.90;;;;;;5092016;28;20297;-91
2022/12/10 00:05:09;;;;;;;2.20;0.65;;;21.40;99.90;;;;;;5086242;28;20249;-89
2022/12/10 00:07:39;;;;;;;5.88;0.73;;;21.30;99.90;;;;;;5081444;28;20193;-93
2022/12/10 00:10:11;;;;;;;7.20;0.82;;;21.10;99.90;;;;;;5092315;28;20200;-91
2022/12/10 00:12:43;;;;;;;4.82;0.73;;;21.00;99.90;;;;;;5086451;28;20282;-87
2022/12/10 00:15:14;;;;;;;3.05;0.70;;;20.90;99.90;;;;;;5086296;28;20256;-93
2022/12/10 00:17:45;;;;;;;4.25;0.73;;;20.90;99.90;;;;;;5081344;28;20279;-92
2022/12/10 00:20:16;;;;;;;2.45;0.75;;;21.40;99.90;;;;;;5089549;28;20678;-91
2022/12/10 00:22:47;;;;;;;3.55;0.70;;;21.60;99.90;;;;;;5084188;28;20189;-93
2022/12/10 00:25:17;;;;;;;5.13;0.98;;;21.80;99.90;;;;;;5091425;28;20191;-94
2022/12/10 00:27:50;;;;;;;3.78;0.85;;;22.10;99.90;;;;;;5089088;28;20200;-91
2022/12/10 00:30:21;;;;;;;3.53;1.10;;;22.70;99.90;;;;;;5080150;28;20189;-90
2022/12/10 00:32:52;;;;;;;5.03;0.80;;;23.30;99.90;;;;;;5082126;28;20202;-87
2022/12/10 00:35:23;;;;;;;4.38;0.80;;;23.30;99.90;;;;;;5088955;28;20228;-84
2022/12/10 00:37:54;;;;;;;4.03;0.70;;;22.70;99.90;;;;;;5087831;28;20196;-88
2022/12/10 00:40:25;;;;;;;2.97;0.90;;;22.30;99.90;;;;;;5083691;28;20272;-91
2022/12/10 00:42:57;;;;;;;4.88;0.88;;;22.00;99.90;;;;;;5082648;28;20193;-92
2022/12/10 00:45:28;;;;;;;4.22;0.80;;;21.90;99.90;;;;;;5084886;28;20201;-84
2022/12/10 00:47:59;;;;;;;3.42;0.90;;;21.70;99.90;;;;;;5083583;28;20188;-88
2022/12/10 00:50:30;;;;;;;3.60;0.70;;;21.50;99.90;;;;;;5086768;28;20568;-89
2022/12/10 00:53:00;;;;;;;4.13;0.63;;;21.20;99.90;;;;;;5080997;28;20193;-86
2022/12/10 00:55:35;;;;;;;3.17;0.50;;;21.20;99.90;;;;;;5086484;28;20749;-90
2022/12/10 00:58:07;;;;;;;3.33;0.57;;;21.30;99.90;;;;;;5086327;28;20266;-90
2022/12/10 01:00:38;;;;;;;6.15;0.80;;;21.30;99.90;;;;;;5085974;28;20279;-92
2022/12/10 01:03:09;;;;;;;5.00;0.90;;;21.40;99.90;;;;;;5085489;28;20188;-93
2022/12/10 01:05:40;;;;;;;2.45;0.65;;;21.40;99.90;;;;;;5082924;28;20203;-90
2022/12/10 01:08:10;;;;;;;6.95;0.77;;;21.30;99.90;;;;;;5087242;28;20227;-91
2022/12/10 01:10:41;;;;;;;4.70;0.75;;;21.30;99.90;;;;;;5087475;28;20203;-90
2022/12/10 01:13:14;;;;;;;5.18;0.90;;;21.20;99.90;;;;;;5086893;28;20220;-92
2022/12/10 01:15:44;;;;;;;4.30;0.88;;;21.10;99.90;;;;;;5083826;28;20209;-92
2022/12/10 01:18:15;;;;;;;3.47;0.55;;;21.10;99.90;;;;;;5085731;28;20189;-90
2022/12/10 01:20:46;;;;;;;4.18;0.65;;;21.00;99.90;;;;;;5088228;28;20624;-80
2022/12/10 01:23:17;;;;;;;3.55;0.50;;;20.90;99.90;;;;;;5087203;28;20310;-91
2022/12/10 01:25:48;;;;;;;3.28;0.60;;;20.80;99.90;;;;;;5082325;28;20279;-92
2022/12/10 01:28:20;;;;;;;4.13;0.80;;;20.70;99.90;;;;;;5085818;28;20613;-91
2022/12/10 01:30:51;;;;;;;4.80;0.63;;;20.60;99.90;;;;;;5075234;28;20189;-82
2022/12/10 01:33:22;;;;;;;2.30;0.65;;;20.70;99.90;;;;;;5077365;28;20232;-94
2022/12/10 01:35:53;;;;;;;3.95;0.80;;;20.70;99.90;;;;;;5082816;28;20231;-90
2022/12/10 01:38:24;;;;;;;4.85;1.13;;;20.80;99.90;;;;;;5094129;28;20192;-85
2022/12/10 01:40:55;;;;;;;5.30;0.82;;;20.80;99.90;;;;;;5093116;28;20192;-83
2022/12/10 01:43:29;;;;;;;8.02;0.75;;;20.80;99.90;;;;;;5094317;28;20223;-85
2022/12/10 01:46:00;;;;;;;3.83;0.70;;;20.90;99.90;;;;;;5088693;28;20184;-85
2022/12/10 01:48:31;;;;;;;2.05;0.75;;;21.00;99.90;;;;;;5087676;28;20184;-88
2022/12/10 01:51:02;;;;;;;3.58;0.70;;;21.10;99.90;;;;;;5111933;28;20267;-88
2022/12/10 01:53:33;;;;;;;5.22;0.60;;;21.10;99.90;;;;;;5104121;28;20575;-90
2022/12/10 01:56:03;;;;;;;5.15;0.77;;;21.20;99.90;;;;;;5096530;28;20652;-84
2022/12/10 01:58:39;;;;;;;2.58;0.57;;;21.30;99.90;;;;;;5096038;28;20646;-90
2022/12/10 02:01:13;;;;;;;3.67;0.80;;;21.90;99.90;;;;;;5091406;28;20690;-87
2022/12/10 02:03:56;;;;;;;5.18;0.70;;;22.60;99.90;;;;;;5092100;28;20712;-85
2022/12/10 02:06:42;;;;;;;2.22;0.60;;;22.50;99.90;;;;;;5077590;28;20204;-85
2022/12/10 02:09:25;;;;;;;2.40;0.50;;;22.30;99.90;;;;;;5087434;28;20253;-87
2022/12/10 02:12:07;;;;;;;3.03;0.60;;;21.90;99.90;;;;;;5092378;28;20271;-81
2022/12/10 02:14:52;;;;;;;4.78;0.80;;;21.80;99.90;;;;;;5086494;28;20207;-87
2022/12/10 02:17:30;;;;;;;2.00;0.60;;;21.60;99.90;;;;;;5083090;28;20222;-85
2022/12/10 02:20:08;;;;;;;2.92;0.88;;;21.60;99.90;;;;;;5091304;28;20198;-88
2022/12/10 02:22:43;;;;;;;4.30;0.70;;;21.50;99.90;;;;;;5090182;28;20562;-88
2022/12/10 02:25:17;;;;;;;2.78;0.70;;;21.40;99.90;;;;;;5087229;28;20273;-86
2022/12/10 02:27:54;;;;;;;5.13;0.80;;;21.60;99.90;;;;;;5097240;28;20188;-86
2022/12/10 02:30:26;;;;;;;4.30;0.70;;;21.80;99.90;;;;;;5091155;28;20192;-85
2022/12/10 02:32:59;;;;;;;6.55;0.80;;;21.90;99.90;;;;;;5086690;28;20674;-82
2022/12/10 02:35:34;;;;;;;4.25;0.50;;;21.80;99.90;;;;;;5085840;28;20295;-84
2022/12/10 02:38:12;;;;;;;2.00;0.75;;;21.40;99.90;;;;;;5090137;28;20274;-84
2022/12/10 02:40:47;;;;;;;5.22;0.90;;;21.40;99.90;;;;;;5091160;28;20237;-91
2022/12/10 02:43:19;;;;;;;3.63;0.60;;;21.40;99.90;;;;;;5095269;28;20192;-85
2022/12/10 02:45:53;;;;;;;4.10;1.05;;;22.00;99.90;;;;;;5087964;28;20272;-84
2022/12/10 02:48:24;;;;;;;3.58;0.70;;;22.40;99.90;;;;;;5093135;28;20204;-86
2022/12/10 02:50:55;;;;;;;1.95;0.52;;;22.40;99.90;;;;;;5093889;28;20207;-83
2022/12/10 02:53:26;;;;;;;5.43;0.75;;;22.10;99.90;;;;;;5094815;28;20710;-84
2022/12/10 02:56:09;;;;;;;2.53;0.80;;;21.80;99.90;;;;;;5096368;28;20224;-82
2022/12/10 02:58:48;;;;;;;3.85;0.75;;;21.60;99.90;;;;;;5093539;28;20275;-88
2022/12/10 03:01:30;;;;;;;5.88;0.80;;;21.40;99.90;;;;;;5089337;28;20681;-84
2022/12/10 03:04:04;;;;;;;2.22;0.70;;;21.30;99.90;;;;;;5092773;28;20200;-86
2022/12/10 03:06:39;;;;;;;4.30;1.35;;;21.40;99.90;;;;;;5096640;28;20270;-86
2022/12/10 03:09:15;;;;;;;4.53;1.20;;;21.40;99.90;;;;;;5097395;28;20183;-88
2022/12/10 03:11:48;;;;;;;5.80;0.90;;;21.30;99.90;;;;;;5096894;28;20653;-89
2022/12/10 03:14:24;;;;;;;3.22;0.70;;;21.20;99.90;;;;;;5096865;28;20283;-84
2022/12/10 03:17:00;;;;;;;4.10;0.75;;;21.20;99.90;;;;;;5092252;28;20583;-86
2022/12/10 03:19:38;;;;;;;2.40;0.90;;;21.40;99.90;;;;;;5076697;28;20199;-87
2022/12/10 03:22:10;;;;;;;3.42;0.80;;;21.50;99.90;;;;;;5085657;28;20643;-88
2022/12/10 03:24:42;;;;;;;3.05;0.80;;;21.50;99.90;;;;;;5096487;28;20649;-86
2022/12/10 03:27:14;;;;;;;1.52;0.50;;;21.60;99.90;;;;;;5096109;28;20279;-86
2022/12/10 03:29:48;;;;;;;3.47;0.73;;;21.60;99.90;;;;;;5097054;28;20185;-83
2022/12/10 03:32:23;;;;;;;3.67;0.75;;;21.60;99.90;;;;;;5096382;28;20215;-83
2022/12/10 03:34:56;;;;;;;6.05;0.98;;;21.50;99.90;;;;;;5083080;28;20230;-84
2022/12/10 03:37:29;;;;;;;3.58;0.80;;;21.30;99.90;;;;;;5095875;28;20244;-85
2022/12/10 03:40:00;;;;;;;4.43;0.80;;;21.20;99.90;;;;;;5087290;28;20189;-86
2022/12/10 03:42:31;;;;;;;4.22;0.75;;;21.10;99.90;;;;;;5075999;28;20199;-86
2022/12/10 03:45:02;;;;;;;3.22;0.70;;;21.20;99.90;;;;;;5076037;28;20278;-82
2022/12/10 03:47:35;;;;;;;3.17;1.00;;;21.40;99.90;;;;;;5075973;28;20189;-86
2022/12/10 03:50:06;;;;;;;2.10;0.80;;;21.60;99.90;;;;;;5075675;28;20189;-86
2022/12/10 03:52:38;;;;;;;2.90;0.90;;;22.00;99.90;;;;;;5088568;28;20200;-87
2022/12/10 03:55:09;;;;;;;3.55;0.90;;;22.30;99.90;;;;;;5095866;28;20192;-85
2022/12/10 03:57:40;;;;;;;2.42;0.65;;;22.20;99.90;;;;;;5095938;28;20232;-85
2022/12/10 04:00:16;;;;;;;6.63;0.75;;;22.00;99.90;;;;;;5096010;28;20200;-78
2022/12/10 04:02:49;;;;;;;5.43;0.90;;;21.80;99.90;;;;;;5095982;28;20188;-85
2022/12/10 04:05:21;;;;;;;4.00;0.98;;;21.50;99.90;;;;;;5095807;28;20200;-85
2022/12/10 04:07:51;;;;;;;4.00;0.90;;;21.40;99.90;;;;;;5095877;28;20252;-86
2022/12/10 04:10:22;;;;;;;5.13;0.75;;;21.50;99.90;;;;;;5095645;28;20662;-85
2022/12/10 04:18:28;;;;;;;3.78;0.80;;;21.40;99.90;;;;;;5095865;28;20638;-85
2022/12/10 04:29:19;;;;;;;3.92;0.82;;;21.50;99.90;;;;;;5095623;28;20183;-81
2022/12/10 04:31:50;;;;;;;3.30;0.88;;;21.90;99.90;;;;;;5095467;28;20188;-85
2022/12/10 04:34:22;;;;;;;3.20;0.77;;;21.90;99.90;;;;;;5086219;28;20220;-79
2022/12/10 04:36:53;;;;;;;3.78;0.85;;;21.90;99.90;;;;;;5091977;28;20236;-83
2022/12/10 04:39:24;;;;;;;3.45;0.80;;;22.00;99.90;;;;;;5090114;28;20267;-82
2022/12/10 04:41:55;;;;;;;5.05;0.80;;;22.00;99.90;;;;;;5074998;28;20196;-85
2022/12/10 04:44:26;;;;;;;2.10;0.80;;;22.10;99.90;;;;;;5074735;28;20197;-79
2022/12/10 04:46:56;;;;;;;2.97;0.68;;;22.10;99.90;;;;;;5075267;28;20195;-89
2022/12/10 04:49:29;;;;;;;4.47;1.00;;;22.20;99.90;;;;;;5074506;28;20193;-82
2022/12/10 04:52:00;;;;;;;5.75;1.27;;;22.00;99.90;;;;;;5082526;28;20184;-83
2022/12/10 04:54:31;;;;;;;4.00;0.85;;;21.90;99.90;;;;;;5095033;28;20631;-82
2022/12/10 04:57:02;;;;;;;2.92;0.60;;;21.80;99.90;;;;;;5094346;28;20596;-82
2022/12/10 04:59:33;;;;;;;7.93;0.80;;;21.70;99.90;;;;;;5095000;28;20191;-81
2022/12/10 05:02:03;;;;;;;3.88;0.70;;;21.80;99.90;;;;;;5094636;28;20185;-84
2022/12/10 05:04:37;;;;;;;2.45;0.85;;;21.90;99.90;;;;;;5094383;28;20199;-81
2022/12/10 05:07:08;;;;;;;2.83;0.80;;;21.90;99.90;;;;;;5094853;28;20188;-85
2022/12/10 05:09:42;;;;;;;2.33;0.80;;;21.80;99.90;;;;;;5094796;28;20241;-82
2022/12/10 05:12:13;;;;;;;5.88;0.73;;;21.60;99.90;;;;;;5095425;28;20199;-86
2022/12/10 05:14:44;;;;;;;4.95;0.90;;;21.40;99.90;;;;;;5104514;28;20256;-84
2022/12/10 05:17:15;;;;;;;4.10;0.70;;;21.40;99.90;;;;;;5097615;28;20303;-86
2022/12/10 05:19:47;;;;;;;4.35;0.60;;;21.40;99.90;;;;;;5094479;28;20188;-86
2022/12/10 05:25:04;;;;;;;4.35;0.70;;;21.50;99.90;;;;;;5094101;28;20194;-86
2022/12/10 05:27:38;;;;;;;3.95;0.82;;;21.50;99.90;;;;;;5093453;28;20667;-87
2022/12/10 05:30:10;;;;;;;5.38;0.80;;;21.60;99.90;;;;;;5074917;28;20644;-85
2022/12/10 05:32:41;;;;;;;2.88;0.68;;;21.60;99.90;;;;;;5082962;28;20184;-85
2022/12/10 05:35:14;;;;;;;3.88;0.73;;;21.60;99.90;;;;;;5083358;28;20217;-85
2022/12/10 05:37:45;;;;;;;4.30;0.82;;;21.40;99.90;;;;;;5083178;28;20243;-85
2022/12/10 05:40:16;;;;;;;7.60;1.10;;;21.50;99.90;;;;;;5083227;28;20195;-82
2022/12/10 05:42:47;;;;;;;1.58;0.60;;;21.50;99.90;;;;;;5083655;28;20224;-86
2022/12/10 05:45:18;;;;;;;4.47;0.85;;;21.60;99.90;;;;;;5082445;28;20211;-85
2022/12/10 05:47:49;;;;;;;3.00;0.80;;;21.50;99.90;;;;;;5083904;28;20184;-81
2022/12/10 05:50:21;;;;;;;3.00;0.80;;;21.40;99.90;;;;;;5083348;28;20189;-82
2022/12/10 05:52:54;;;;;;;3.15;0.70;;;21.30;99.90;;;;;;5086131;28;20192;-85
2022/12/10 05:55:24;;;;;;;4.80;0.85;;;21.30;99.90;;;;;;5078197;28;20527;-82
2022/12/10 05:57:55;;;;;;;5.97;0.73;;;21.30;99.90;;;;;;5084088;28;20231;-84
2022/12/10 06:00:26;;;;;;;3.25;0.80;;;21.20;99.90;;;;;;5083979;28;20552;-82
2022/12/10 06:02:57;;;;;;;5.82;1.23;;;21.00;99.90;;;;;;5081439;28;20208;-83
2022/12/10 06:05:29;;;;;;;5.25;1.20;;;21.00;99.90;;;;;;5081133;28;20239;-83
2022/12/10 06:08:00;;;;;;;3.03;0.80;;;21.00;99.90;;;;;;5077586;28;20659;-84
2022/12/10 06:10:31;;;;;;;3.70;0.80;;;20.90;99.90;;;;;;5080931;28;20552;-84
2022/12/10 06:13:02;;;;;;;3.50;0.60;;;21.00;99.90;;;;;;5083211;28;20271;-88
2022/12/10 06:15:32;;;;;;;3.88;0.63;;;20.90;99.90;;;;;;5081286;28;20193;-84
2022/12/10 06:18:04;;;;;;;6.05;1.35;;;20.90;99.90;;;;;;5081113;28;20216;-81
2022/12/10 06:20:39;;;;;;;3.97;1.00;;;20.80;99.90;;;;;;5081387;28;20200;-85
2022/12/10 06:23:10;;;;;;;4.15;0.90;;;20.80;99.90;;;;;;5084850;28;20625;-81
2022/12/10 06:25:42;;;;;;;5.65;1.00;;;20.80;99.90;;;;;;5088802;28;20236;-84
2022/12/10 06:28:13;;;;;;;4.03;0.80;;;20.70;99.90;;;;;;5082693;28;20203;-84
2022/12/10 06:30:43;;;;;;;9.43;0.75;;;20.80;99.90;;;;;;5082487;28;20703;-84
2022/12/10 06:33:17;;;;;;;4.88;0.90;;;20.90;99.90;;;;;;5081563;28;20216;-79
2022/12/10 06:35:50;;;;;;;4.10;1.08;;;20.90;99.90;;;;;;5083180;28;20242;-85
2022/12/10 06:38:20;;;;;;;6.50;0.82;;;20.80;99.90;;;;;;5082237;28;20209;-87
2022/12/10 06:40:52;;;;;;;5.68;1.00;;;20.70;99.90;;;;;;5077612;28;20651;-81
2022/12/10 06:43:23;;;;;;;3.50;0.90;;;20.70;99.90;;;;;;5077718;28;20196;-82
2022/12/10 06:45:54;;;;;;;4.43;1.20;;;20.60;99.90;;;;;;5083432;28;20546;-85
2022/12/10 06:48:24;;;;;;;3.90;0.80;;;20.60;99.90;;;;;;5084002;28;20192;-83
2022/12/10 06:50:59;;;;;;;3.60;0.88;;;20.70;99.90;;;;;;5080714;28;20184;-83
2022/12/10 06:53:33;;;;;;;2.10;0.73;;;20.70;99.90;;;;;;5080511;28;20188;-85
2022/12/10 06:56:14;;;;;;;4.22;0.70;;;20.70;99.90;;;;;;5081391;28;20703;-83
2022/12/10 06:58:45;;;;;;;3.83;0.80;;;20.70;99.90;;;;;;5079484;28;20239;-85
2022/12/10 07:01:19;;;;;;;4.50;0.70;;;20.60;99.90;;;;;;5083277;28;20271;-87
2022/12/10 07:03:52;;;;;;;1.95;0.70;;;20.50;99.90;;;;;;5086932;28;20194;-85
2022/12/10 07:06:25;;;;;;;3.05;0.80;;;20.60;99.90;;;;;;5087272;28;20189;-86
2022/12/10 07:08:56;;;;;;;3.25;0.80;;;20.50;99.90;;;;;;5084700;28;20220;-85
2022/12/10 07:11:30;;;;;;;7.70;0.90;;;20.60;99.90;;;;;;5083936;28;20268;-84
2022/12/10 07:14:01;;;;;;;5.70;1.00;;;20.40;99.90;;;;;;5084333;28;20196;-84
2022/12/10 07:16:36;;;;;;;5.07;0.83;;;20.30;99.90;;;;;;5084149;28;20192;-85
2022/12/10 07:19:06;;;;;;;2.75;0.60;;;20.20;99.90;;;;;;5086231;28;20485;-83
2022/12/10 07:21:41;;;;;;;6.75;0.80;;;20.20;99.90;;;;;;5085269;28;20189;-86
2022/12/10 07:24:15;;;;;;;3.00;0.60;;;20.20;99.90;;;;;;5085770;28;20218;-84
2022/12/10 07:26:47;;;;;;;1.45;0.60;;;20.20;99.90;;;;;;5085368;28;20188;-82
2022/12/10 07:29:20;;;;;;;2.22;0.65;;;20.20;99.90;;;;;;5086027;28;20189;-85
2022/12/10 07:31:51;;;;;;;3.28;0.73;;;20.30;99.90;;;;;;5083867;28;20193;-87
2022/12/10 07:34:22;;;;;;;6.70;0.90;;;20.30;99.90;;;;;;5087003;28;20296;-84
2022/12/10 07:36:54;;;;;;;3.47;0.80;;;20.30;99.90;;;;;;5084227;28;20220;-84
2022/12/10 07:39:25;;;;;;;2.65;0.80;;;20.30;99.90;;;;;;5086622;28;20196;-84
2022/12/10 07:41:56;;;;;;;4.20;0.90;;;20.20;99.90;;;;;;5084210;28;20185;-81
2022/12/10 07:44:28;;;;;;;4.50;0.95;;;20.20;99.90;;;;;;5083706;28;20655;-82
2022/12/10 07:46:58;;;;;;;2.65;1.00;;;20.10;99.90;;;;;;5083672;28;20207;-86
2022/12/10 07:49:31;;;;;;;4.40;1.10;;;20.10;99.90;;;;;;5083429;28;20189;-85
2022/12/10 07:52:04;;;;;;;3.88;0.70;;;20.10;99.90;;;;;;5084402;28;20191;-82
2022/12/10 07:54:34;;;;;;;5.72;1.00;;;20.10;99.90;;;;;;5085762;28;20272;-87
2022/12/10 07:57:05;;;;;;;5.07;0.90;;;20.20;99.90;;;;;;5089665;28;20219;-86
2022/12/10 07:59:39;;;;;;;2.90;0.70;;;20.20;99.90;;;;;;5084235;28;20196;-87
2022/12/10 08:02:10;;;;;;;5.72;1.10;;;20.10;99.90;;;;;;5084864;28;20185;-88
2022/12/10 08:04:42;;;;;;;4.88;1.00;;;20.10;99.90;;;;;;5084016;28;20199;-88
2022/12/10 08:07:17;;;;;;;4.63;1.00;;;20.00;99.90;;;;;;5084338;28;20557;-83
2022/12/10 08:09:48;;;;;;;3.10;1.00;;;19.80;99.90;;;;;;5085482;28;20184;-85
2022/12/10 08:12:19;;;;;;;4.60;0.85;;;19.70;99.90;;;;;;5088578;28;20188;-89
2022/12/10 08:14:50;;;;;;;4.00;0.77;;;19.60;99.90;;;;;;5082956;28;20643;-85
2022/12/10 08:17:23;;;;;;;3.72;0.70;;;19.50;99.90;;;;;;5082816;28;20675;-87
2022/12/10 08:19:54;;;;;;;2.60;0.80;;;19.50;99.90;;;;;;5085623;28;20213;-88
2022/12/10 08:22:27;;;;;;;4.70;0.70;;;19.40;99.90;;;;;;5083739;28;20193;-88
2022/12/10 08:24:58;;;;;;;4.85;1.00;;;19.30;99.90;;;;;;5084019;28;20196;-83
2022/12/10 08:27:28;;;;;;;5.57;1.00;;;19.20;99.90;;;;;;5086459;28;20545;-87
2022/12/10 08:29:59;;;;;;;3.35;1.08;;;19.10;99.90;;;;;;5083382;28;20184;-87
2022/12/10 08:32:30;;;;;;;3.53;0.70;;;19.10;99.90;;;;;;5079959;28;20641;-87
2022/12/10 08:35:01;;;;;;;4.30;0.93;;;19.10;99.90;;;;;;5083717;28;20234;-85
2022/12/10 08:37:33;;;;;;;5.20;1.08;;;19.00;99.90;;;;;;5085239;28;20235;-88
2022/12/10 08:40:04;;;;;;;4.55;1.10;;;19.00;99.90;;;;;;5083310;28;20196;-89
2022/12/10 08:42:35;;;;;;;5.38;1.17;;;19.00;99.90;;;;;;5087464;28;20188;-86
2022/12/10 08:45:06;;;;;;;4.20;1.05;;;19.00;99.90;;;;;;5085109;28;20199;-89
2022/12/10 08:47:36;;;;;;;4.82;1.08;;;19.00;99.90;;;;;;5082034;28;20207;-87
2022/12/10 08:50:08;;;;;;;5.38;1.15;;;19.00;99.90;;;;;;5083868;28;20304;-89
2022/12/10 08:52:40;;;;;;;3.05;0.95;;;18.90;99.90;;;;;;5086448;28;20284;-79
2022/12/10 08:55:11;;;;;;;5.43;0.98;;;18.90;99.90;;;;;;5082812;28;20667;-86
2022/12/10 08:57:42;;;;;;;6.00;1.02;;;18.80;99.90;;;;;;5082364;28;20212;-89
2022/12/10 09:00:15;;;;;;;4.15;0.95;;;18.80;99.90;;;;;;5083418;28;20204;-88
2022/12/10 09:02:46;;;;;;;3.42;0.82;;;18.70;99.90;;;;;;5080893;28;20218;-85
2022/12/10 09:05:17;;;;;;;5.05;1.08;;;18.80;99.90;;;;;;5083673;28;20189;-87
2022/12/10 09:07:50;;;;;;;3.83;0.95;;;18.70;99.90;;;;;;5083351;28;20195;-85
2022/12/10 09:10:21;;;;;;;2.97;0.90;;;18.70;99.90;;;;;;5083599;28;20678;-89
2022/12/10 09:12:52;;;;;;;3.63;1.05;;;18.70;99.90;;;;;;5084604;28;20531;-88
2022/12/10 09:15:23;;;;;;;3.30;0.70;;;18.60;99.90;;;;;;5083457;28;20250;-86
2022/12/10 09:17:54;;;;;;;7.72;1.02;;;18.60;99.90;;;;;;5079440;28;20208;-86
2022/12/10 09:20:25;;;;;;;3.92;1.10;;;18.60;99.90;;;;;;5082811;28;20201;-88
2022/12/10 09:22:57;;;;;;;3.10;1.27;;;18.60;99.90;;;;;;5084183;28;20655;-86
2022/12/10 09:25:28;;;;;;;5.65;1.10;;;18.60;99.90;;;;;;5082769;28;20200;-86
2022/12/10 09:27:59;;;;;;;5.13;1.10;;;18.60;99.90;;;;;;5082185;28;20189;-86
2022/12/10 09:30:30;;;;;;;3.28;1.17;;;18.50;99.90;;;;;;5084902;28;20192;-89
2022/12/10 09:33:00;;;;;;;6.03;0.93;;;18.50;99.90;;;;;;5081035;28;20221;-86
2022/12/10 09:35:31;;;;;;;4.75;1.00;;;18.40;99.90;;;;;;5078235;28;20207;-86
2022/12/10 09:38:04;;;;;;;4.75;0.90;;;18.50;99.90;;;;;;5090105;28;20246;-83
2022/12/10 09:40:42;;;;;;;2.50;1.05;;;18.50;99.90;;;;;;5088991;28;20283;-87
2022/12/10 09:43:23;;;;;;;5.72;2.15;;;18.50;99.90;;;;;;5091403;28;20192;-90
2022/12/10 09:46:05;;;;;;;6.38;1.77;;;18.40;99.90;;;;;;5093970;28;20192;-84
2022/12/10 09:48:43;;;;;;;3.30;1.15;;;18.40;99.90;;;;;;5092754;28;20200;-88
2022/12/10 09:51:20;;;;;;;6.63;1.08;;;18.40;99.90;;;;;;5089606;28;20188;-85
2022/12/10 09:53:58;;;;;;;3.15;1.05;;;18.40;99.90;;;;;;5088882;28;20199;-89
2022/12/10 09:56:32;;;;;;;5.10;1.42;;;18.40;99.90;;;;;;5093300;28;20200;-87
2022/12/10 09:59:06;;;;;;;3.88;1.30;;;18.40;99.90;;;;;;5090946;28;20212;-90
2022/12/10 10:01:38;;;;;;;3.60;1.20;;;18.40;99.90;;;;;;5078736;28;20571;-87
2022/12/10 10:04:09;;;;;;;5.43;1.25;;;18.30;99.90;;;;;;5092710;28;20277;-87
2022/12/10 10:06:40;;;;;;;4.63;1.10;;;18.30;99.90;;;;;;5082120;28;20189;-87
2022/12/10 10:09:19;;;;;;;5.25;1.20;;;18.30;99.90;;;;;;5093476;28;20211;-86
2022/12/10 10:11:51;;;;;;;4.47;1.10;;;18.30;99.90;;;;;;5092789;28;20198;-88
2022/12/10 10:14:28;;;;;;;6.32;1.20;;;18.30;99.90;;;;;;5088548;28;20188;-89
2022/12/10 10:17:03;;;;;;;5.30;1.13;;;18.30;99.90;;;;;;5090884;28;20195;-88
2022/12/10 10:19:37;;;;;;;5.25;1.00;;;18.30;99.90;;;;;;5087900;28;20227;-89
2022/12/10 10:22:08;;;;;;;4.25;1.30;;;18.30;99.90;;;;;;5093288;28;20192;-87
2022/12/10 10:24:45;;;;;;;5.57;1.30;;;18.30;99.90;;;;;;5089521;28;20230;-88
2022/12/10 10:27:18;;;;;;;2.30;0.77;;;18.30;99.90;;;;;;5093418;28;20195;-87
2022/12/10 10:29:51;;;;;;;6.05;1.10;;;18.20;99.90;;;;;;5094635;28;20207;-90
2022/12/10 10:32:23;;;;;;;3.30;1.20;;;18.30;99.90;;;;;;5091195;28;20199;-88
2022/12/10 10:34:58;;;;;;;3.97;0.90;;;18.30;99.90;;;;;;5085608;28;20195;-87
2022/12/10 10:37:31;;;;;;;4.47;0.73;;;18.20;99.90;;;;;;5091362;28;20227;-86
2022/12/10 10:40:04;;;;;;;6.15;1.10;;;18.20;99.90;;;;;;5093483;28;20209;-86
2022/12/10 10:42:40;;;;;;;3.97;1.00;;;18.20;99.90;;;;;;5094214;28;20227;-85
2022/12/10 10:45:41;;;;;;;4.78;1.00;;;18.20;99.90;;;;;;5094884;28;20187;-87
2022/12/10 10:48:16;;;;;;;6.90;1.58;;;18.20;99.90;;;;;;5094763;28;20195;-87
2022/12/10 10:50:48;;;;;;;2.65;1.00;;;18.20;99.90;;;;;;5095089;28;20222;-88
2022/12/10 10:53:29;;;;;;;5.57;1.20;;;18.20;99.90;;;;;;5089795;28;20193;-87
2022/12/10 10:56:02;;;;;;;5.78;1.45;;;18.20;99.90;;;;;;5093176;28;20593;-87
2022/12/10 10:58:33;;;;;;;5.60;1.25;;;18.20;99.90;;;;;;5087726;28;20220;-89
2022/12/10 11:01:08;;;;;;;7.18;1.27;;;18.20;99.90;;;;;;5088455;28;20188;-88
2022/12/10 11:03:48;;;;;;;4.10;0.93;;;18.20;99.90;;;;;;5096065;28;20202;-86
2022/12/10 11:06:19;;;;;;;8.48;1.00;;;18.20;99.90;;;;;;5090641;28;20188;-87
2022/12/10 11:08:51;;;;;;;5.18;1.17;;;18.20;99.90;;;;;;5094651;28;20279;-87
2022/12/10 11:11:25;;;;;;;5.93;0.90;;;18.10;99.90;;;;;;5097072;28;20193;-91
2022/12/10 11:13:55;;;;;;;3.42;0.90;;;18.20;99.90;;;;;;5095441;28;20238;-86
2022/12/10 11:16:28;;;;;;;3.80;0.77;;;18.20;99.90;;;;;;5094322;28;20203;-87
2022/12/10 11:19:02;;;;;;;3.35;0.80;;;18.10;99.90;;;;;;5090196;28;20678;-87
2022/12/10 11:21:34;;;;;;;3.53;0.82;;;18.10;99.90;;;;;;5095306;28;20233;-85
2022/12/10 11:24:16;;;;;;;5.80;1.30;;;18.10;99.90;;;;;;5095746;28;20204;-78
2022/12/10 11:27:02;;;;;;;3.53;0.80;;;18.10;99.90;;;;;;5087379;28;20195;-84
2022/12/10 11:29:49;;;;;;;3.58;0.80;;;18.10;99.90;;;;;;5076204;28;20663;-82
2022/12/10 11:32:38;;;;;;;3.90;0.90;;;18.10;99.90;;;;;;5076074;28;20188;-84
2022/12/10 11:35:18;;;;;;;4.05;0.73;;;18.10;99.90;;;;;;5087110;28;20199;-86
2022/12/10 11:38:01;;;;;;;4.40;1.00;;;18.10;99.90;;;;;;5075936;28;20285;-86
2022/12/10 11:40:40;;;;;;;3.97;1.02;;;18.10;99.90;;;;;;5093034;28;20193;-87
2022/12/10 11:43:34;;;;;;;3.22;0.80;;;18.10;99.90;;;;;;5096265;28;20199;-86
2022/12/10 11:46:24;;;;;;;3.20;0.95;;;18.10;99.90;;;;;;5096017;28;20192;-81
2022/12/10 11:49:17;;;;;;;4.43;0.82;;;18.00;99.90;;;;;;5093602;28;20670;-86
2022/12/10 11:51:55;;;;;;;4.00;0.90;;;18.00;99.90;;;;;;5086581;28;20571;-86
2022/12/10 11:54:55;;;;;;;5.78;0.80;;;18.00;99.90;;;;;;5092769;28;20275;-86
2022/12/10 11:57:37;;;;;;;3.53;0.98;;;18.00;99.90;;;;;;5096023;28;20212;-86
2022/12/10 12:00:24;;;;;;;3.25;0.80;;;18.00;99.90;;;;;;5095636;28;20220;-87
2022/12/10 12:03:29;;;;;;;2.97;0.63;;;18.00;99.90;;;;;;5095761;28;20196;-87
2022/12/10 12:06:22;;;;;;;4.40;0.90;;;18.00;99.90;;;;;;5095636;28;20283;-86
2022/12/10 12:09:01;;;;;;;3.95;0.70;;;18.00;99.90;;;;;;5095420;28;20272;-86
2022/12/10 12:11:52;;;;;;;3.80;1.10;;;18.00;99.90;;;;;;5086639;28;20654;-86
2022/12/10 12:14:27;;;;;;;2.50;0.80;;;17.90;99.90;;;;;;5095611;28;20193;-86
2022/12/10 12:17:10;;;;;;;3.83;0.73;;;17.90;99.90;;;;;;5082196;28;20201;-86
2022/12/10 12:19:45;;;;;;;4.75;0.95;;;17.90;99.90;;;;;;5085061;28;20687;-87
2022/12/10 12:22:26;;;;;;;3.55;1.00;;;17.80;99.90;;;;;;5081494;28;20249;-87
2022/12/10 12:25:00;;;;;;;4.65;0.98;;;17.80;99.90;;;;;;5085083;28;20196;-86
2022/12/10 12:27:36;;;;;;;3.95;0.75;;;17.80;99.90;;;;;;5076859;28;20192;-86
2022/12/10 12:30:15;;;;;;;4.50;0.90;;;17.80;99.90;;;;;;5079517;28;20209;-85
2022/12/10 12:32:57;;;;;;;3.75;0.80;;;17.70;99.90;;;;;;5084072;28;20216;-87
2022/12/10 12:35:35;;;;;;;6.18;0.90;;;17.70;99.90;;;;;;5083190;28;20188;-84
2022/12/10 12:38:24;;;;;;;4.38;0.93;;;17.70;99.90;;;;;;5074676;28;20237;-85
2022/12/10 12:41:00;;;;;;;4.63;1.00;;;17.60;99.90;;;;;;5080140;28;20192;-84
2022/12/10 12:43:40;;;;;;;7.80;1.13;;;17.60;99.90;;;;;;5095068;28;20191;-82
2022/12/10 12:46:18;;;;;;;5.78;1.00;;;17.50;99.90;;;;;;5094949;28;20503;-83
2022/12/10 12:48:56;;;;;;;3.80;0.80;;;17.50;99.90;;;;;;5078464;28;20196;-87
2022/12/10 12:51:31;;;;;;;4.00;1.00;;;17.50;99.90;;;;;;5090473;28;20665;-87
2022/12/10 12:54:04;;;;;;;3.63;1.05;;;17.40;99.90;;;;;;5079831;28;20195;-86
2022/12/10 12:57:01;;;;;;;7.43;0.82;;;17.40;99.90;;;;;;5094620;28;20202;-85
2022/12/10 12:59:59;;;;;;;6.35;1.33;;;17.40;99.90;;;;;;5092389;28;20323;-88
2022/12/10 13:02:54;;;;;;;7.53;1.20;;;17.30;99.90;;;;;;5087655;28;20195;-85
2022/12/10 13:05:30;;;;;;;6.90;1.27;;;17.30;99.90;;;;;;5074375;28;20636;-85
2022/12/10 13:08:30;;;;;;;3.75;0.90;;;17.30;99.90;;;;;;5076482;28;20196;-85
2022/12/10 13:11:18;;;;;;;3.67;0.80;;;17.20;99.90;;;;;;5093043;28;20185;-86
2022/12/10 13:14:13;;;;;;;5.38;0.85;;;17.20;99.90;;;;;;5094419;28;20190;-86
2022/12/10 13:17:11;;;;;;;5.72;0.98;;;17.20;99.90;;;;;;5087065;28;20196;-86
2022/12/10 13:19:44;;;;;;;6.63;0.98;;;17.20;99.90;;;;;;5089068;28;20682;-86
2022/12/10 13:22:35;;;;;;;3.75;1.15;;;17.20;99.90;;;;;;5090812;28;20188;-86
2022/12/10 13:25:15;;;;;;;8.13;1.10;;;17.20;99.90;;;;;;5088827;28;20206;-86
2022/12/10 13:27:58;;;;;;;6.22;0.90;;;17.10;99.90;;;;;;5086746;28;20185;-85
2022/12/10 13:30:37;;;;;;;4.57;0.80;;;17.10;99.90;;;;;;5086836;28;20677;-80
2022/12/10 13:33:20;;;;;;;2.95;0.90;;;17.10;99.90;;;;;;5088026;28;20214;-85
2022/12/10 13:36:00;;;;;;;4.68;0.90;;;17.10;99.90;;;;;;5088294;28;20236;-86
2022/12/10 13:38:31;;;;;;;4.65;0.80;;;17.10;99.90;;;;;;5081460;28;20615;-85
2022/12/10 13:47:00;;;;;;;3.92;1.08;;;17.10;99.90;;;;;;5082198;28;20250;-86